QFA25 YSSY-RJTT
Flight info
| Callsign | QFA25 |
|---|---|
| Flight time | N/A |
| Altitude | 36000 |
| Route | RIC6/34L RIC H530 LASUD Q238 DUPUG Q141 OVRON B462 PY B586 PIKOK DCT 05N145E 10N144E 15N143E 20N142E 25N141E UKATA B586 CADDY T871 TOPIT Y875 AROSA |
| Aircraft | A333/H-SDE3GHIJ2J3J5M1RVWXY/LB2D1 |
Departure
| Time | N/A |
|---|---|
| Airport | Sydney Kingsford Smith International Airport (YSSY) |
Arrival
| Time | 2026-05-04 00:27 |
|---|---|
| Airport | Tokyo Haneda International Airport (RJTT) |
| Time | Latitude | Longitude | Altitude | Speed | Heading |
|---|---|---|---|---|---|
| 2026-05-03 20:15 | 4.77118 | 145.05256 | 35867 ft | 474 kts | 348° |
| 2026-05-03 20:15 | 4.83558 | 145.03779 | 35869 ft | 475 kts | 348° |
| 2026-05-03 20:16 | 4.89961 | 145.02310 | 35865 ft | 475 kts | 348° |
| 2026-05-03 20:16 | 4.96400 | 145.00833 | 35866 ft | 475 kts | 348° |
| 2026-05-03 20:17 | 5.02858 | 144.99402 | 35868 ft | 476 kts | 349° |
| 2026-05-03 20:17 | 5.09372 | 144.98109 | 35868 ft | 478 kts | 350° |
| 2026-05-03 20:18 | 5.15903 | 144.96843 | 35868 ft | 478 kts | 350° |
| 2026-05-03 20:18 | 5.22389 | 144.95572 | 35870 ft | 478 kts | 350° |
| 2026-05-03 20:19 | 5.28914 | 144.94282 | 35868 ft | 478 kts | 350° |
| 2026-05-03 20:19 | 5.35447 | 144.92987 | 35872 ft | 478 kts | 350° |
| 2026-05-03 20:20 | 5.41981 | 144.91691 | 35866 ft | 479 kts | 350° |
| 2026-05-03 20:20 | 5.48471 | 144.90405 | 35868 ft | 479 kts | 350° |
| 2026-05-03 20:21 | 5.55010 | 144.89108 | 35870 ft | 479 kts | 350° |
| 2026-05-03 20:21 | 5.61546 | 144.87812 | 35868 ft | 479 kts | 350° |
| 2026-05-03 20:22 | 5.68081 | 144.86516 | 35868 ft | 479 kts | 350° |
| 2026-05-03 20:22 | 5.74621 | 144.85218 | 35869 ft | 479 kts | 350° |
| 2026-05-03 20:23 | 5.81107 | 144.83931 | 35870 ft | 479 kts | 350° |
| 2026-05-03 20:23 | 5.87647 | 144.82633 | 35868 ft | 479 kts | 350° |
| 2026-05-03 20:24 | 5.94184 | 144.81335 | 35871 ft | 479 kts | 350° |
| 2026-05-03 20:24 | 6.00723 | 144.80037 | 35868 ft | 479 kts | 350° |
| 2026-05-03 20:25 | 6.07226 | 144.78745 | 35874 ft | 480 kts | 350° |
| 2026-05-03 20:25 | 6.13773 | 144.77444 | 35869 ft | 480 kts | 350° |
| 2026-05-03 20:26 | 6.20317 | 144.76144 | 35869 ft | 480 kts | 350° |
| 2026-05-03 20:26 | 6.26823 | 144.74850 | 35869 ft | 479 kts | 351° |
| 2026-05-03 20:27 | 6.33359 | 144.73550 | 35867 ft | 479 kts | 351° |
| 2026-05-03 20:27 | 6.39897 | 144.72250 | 35871 ft | 479 kts | 351° |
| 2026-05-03 20:28 | 6.46436 | 144.70950 | 35872 ft | 479 kts | 351° |
| 2026-05-03 20:28 | 6.52978 | 144.69648 | 35870 ft | 479 kts | 351° |
| 2026-05-03 20:29 | 6.59472 | 144.68355 | 35869 ft | 479 kts | 351° |
| 2026-05-03 20:29 | 6.66011 | 144.67053 | 35870 ft | 479 kts | 351° |
| 2026-05-03 20:30 | 6.72544 | 144.65752 | 35869 ft | 479 kts | 351° |
| 2026-05-03 20:30 | 6.79088 | 144.64449 | 35871 ft | 479 kts | 351° |
| 2026-05-03 20:31 | 6.85578 | 144.63155 | 35867 ft | 479 kts | 351° |
| 2026-05-03 20:31 | 6.92118 | 144.61852 | 35869 ft | 479 kts | 351° |
| 2026-05-03 20:32 | 6.98656 | 144.60548 | 35868 ft | 479 kts | 351° |
| 2026-05-03 20:32 | 7.05196 | 144.59244 | 35871 ft | 479 kts | 351° |
| 2026-05-03 20:33 | 7.11695 | 144.57948 | 35874 ft | 479 kts | 351° |
| 2026-05-03 20:33 | 7.18228 | 144.56644 | 35870 ft | 478 kts | 351° |
| 2026-05-03 20:34 | 7.24739 | 144.55344 | 35876 ft | 477 kts | 351° |
| 2026-05-03 20:34 | 7.31256 | 144.54043 | 35870 ft | 477 kts | 351° |
| 2026-05-03 20:35 | 7.37718 | 144.52753 | 35871 ft | 477 kts | 351° |
| 2026-05-03 20:35 | 7.44230 | 144.51452 | 35874 ft | 477 kts | 351° |
| 2026-05-03 20:36 | 7.50742 | 144.50151 | 35871 ft | 477 kts | 351° |
| 2026-05-03 20:36 | 7.57255 | 144.48849 | 35875 ft | 477 kts | 351° |
| 2026-05-03 20:37 | 7.63765 | 144.47547 | 35875 ft | 477 kts | 351° |
| 2026-05-03 20:37 | 7.70240 | 144.46252 | 35873 ft | 477 kts | 351° |
| 2026-05-03 20:38 | 7.76752 | 144.44949 | 35875 ft | 477 kts | 351° |
| 2026-05-03 20:38 | 7.83268 | 144.43645 | 35874 ft | 478 kts | 351° |
| 2026-05-03 20:39 | 7.89787 | 144.42339 | 35878 ft | 478 kts | 351° |
| 2026-05-03 20:39 | 7.96307 | 144.41034 | 35878 ft | 478 kts | 351° |
| 2026-05-03 20:40 | 8.02779 | 144.39737 | 35872 ft | 478 kts | 351° |
| 2026-05-03 20:40 | 8.09303 | 144.38430 | 35874 ft | 478 kts | 351° |
| 2026-05-03 20:41 | 8.15830 | 144.37121 | 35875 ft | 478 kts | 351° |
| 2026-05-03 20:41 | 8.22359 | 144.35812 | 35879 ft | 478 kts | 351° |
| 2026-05-03 20:42 | 8.28843 | 144.34511 | 35881 ft | 478 kts | 351° |
| 2026-05-03 20:42 | 8.35369 | 144.33201 | 35878 ft | 478 kts | 351° |
| 2026-05-03 20:43 | 8.41903 | 144.31890 | 35879 ft | 479 kts | 351° |
| 2026-05-03 20:43 | 8.48436 | 144.30578 | 35879 ft | 479 kts | 351° |
| 2026-05-03 20:44 | 8.54923 | 144.29275 | 35881 ft | 479 kts | 351° |
| 2026-05-03 20:44 | 8.61460 | 144.27961 | 35880 ft | 479 kts | 351° |
| 2026-05-03 20:45 | 8.67993 | 144.26648 | 35878 ft | 480 kts | 351° |
| 2026-05-03 20:45 | 8.74544 | 144.25330 | 35882 ft | 480 kts | 351° |
| 2026-05-03 20:46 | 8.81051 | 144.24021 | 35882 ft | 480 kts | 351° |
| 2026-05-03 20:46 | 8.87608 | 144.22702 | 35884 ft | 480 kts | 351° |
| 2026-05-03 20:47 | 8.94162 | 144.21382 | 35886 ft | 480 kts | 351° |
| 2026-05-03 20:47 | 9.00715 | 144.20063 | 35884 ft | 480 kts | 351° |
| 2026-05-03 20:48 | 9.07229 | 144.18750 | 35883 ft | 480 kts | 351° |
| 2026-05-03 20:48 | 9.13783 | 144.17429 | 35885 ft | 480 kts | 351° |
| 2026-05-03 20:49 | 9.20335 | 144.16109 | 35884 ft | 480 kts | 351° |
| 2026-05-03 20:49 | 9.26888 | 144.14787 | 35885 ft | 480 kts | 351° |
| 2026-05-03 20:50 | 9.33401 | 144.13473 | 35879 ft | 480 kts | 351° |
| 2026-05-03 20:50 | 9.39951 | 144.12151 | 35883 ft | 480 kts | 351° |
| 2026-05-03 20:51 | 9.46505 | 144.10828 | 35885 ft | 480 kts | 351° |
| 2026-05-03 20:51 | 9.53056 | 144.09504 | 35896 ft | 480 kts | 351° |
| 2026-05-03 20:52 | 9.59564 | 144.08189 | 35900 ft | 480 kts | 351° |
| 2026-05-03 20:52 | 9.66118 | 144.06864 | 35899 ft | 480 kts | 351° |
| 2026-05-03 20:53 | 9.72669 | 144.05539 | 35886 ft | 480 kts | 351° |
| 2026-05-03 20:53 | 9.79220 | 144.04214 | 35885 ft | 480 kts | 351° |
| 2026-05-03 20:54 | 9.85731 | 144.02897 | 35884 ft | 481 kts | 351° |
| 2026-05-03 20:54 | 9.95577 | 144.00903 | 35897 ft | 481 kts | 350° |
| 2026-05-03 20:55 | 10.02141 | 143.99581 | 35888 ft | 481 kts | 351° |
| 2026-05-03 20:55 | 10.08709 | 143.98287 | 35890 ft | 481 kts | 351° |
| 2026-05-03 20:56 | 10.15245 | 143.97008 | 35890 ft | 482 kts | 351° |
| 2026-05-03 20:56 | 10.21850 | 143.95713 | 35891 ft | 484 kts | 351° |
| 2026-05-03 20:57 | 10.28467 | 143.94412 | 35886 ft | 484 kts | 351° |
| 2026-05-03 20:57 | 10.35071 | 143.93113 | 35901 ft | 484 kts | 351° |
| 2026-05-03 20:58 | 10.41695 | 143.91809 | 35904 ft | 486 kts | 350° |
| 2026-05-03 20:58 | 10.48319 | 143.90505 | 35894 ft | 489 kts | 350° |
| 2026-05-03 20:59 | 10.55012 | 143.89186 | 35904 ft | 491 kts | 350° |
| 2026-05-03 20:59 | 10.61724 | 143.87863 | 35906 ft | 491 kts | 350° |
| 2026-05-03 21:00 | 10.66159 | 143.86989 | 35905 ft | 490 kts | 350° |
| 2026-05-03 21:00 | 10.75089 | 143.85227 | 35907 ft | 493 kts | 350° |
| 2026-05-03 21:01 | 10.81813 | 143.83900 | 35906 ft | 491 kts | 350° |
| 2026-05-03 21:01 | 10.88518 | 143.82576 | 35908 ft | 492 kts | 350° |
| 2026-05-03 21:02 | 10.94110 | 143.81472 | 35905 ft | 492 kts | 350° |
| 2026-05-03 21:02 | 11.01906 | 143.79931 | 35897 ft | 490 kts | 350° |
| 2026-05-03 21:03 | 11.08623 | 143.78603 | 35897 ft | 492 kts | 350° |
| 2026-05-03 21:03 | 11.14209 | 143.77498 | 35908 ft | 491 kts | 350° |
| 2026-05-03 21:04 | 11.20912 | 143.76171 | 35913 ft | 491 kts | 350° |
| 2026-05-03 21:04 | 11.28732 | 143.74624 | 35915 ft | 492 kts | 349° |
| 2026-05-03 21:05 | 11.34351 | 143.73510 | 35916 ft | 490 kts | 350° |
| 2026-05-03 21:05 | 11.41011 | 143.72190 | 35915 ft | 492 kts | 350° |
| 2026-05-03 21:06 | 11.47731 | 143.70858 | 35906 ft | 491 kts | 349° |
| 2026-05-03 21:06 | 11.55510 | 143.69315 | 35915 ft | 490 kts | 350° |
| 2026-05-03 21:07 | 11.62224 | 143.67983 | 35901 ft | 492 kts | 349° |
| 2026-05-03 21:07 | 11.67800 | 143.66875 | 35905 ft | 491 kts | 349° |
| 2026-05-03 21:08 | 11.74496 | 143.65545 | 35912 ft | 491 kts | 350° |
| 2026-05-03 21:08 | 11.81223 | 143.64208 | 35915 ft | 493 kts | 349° |
| 2026-05-03 21:09 | 11.87934 | 143.62874 | 35899 ft | 490 kts | 349° |
| 2026-05-03 21:09 | 11.95718 | 143.61325 | 35914 ft | 492 kts | 349° |
| 2026-05-03 21:10 | 12.01300 | 143.60214 | 35918 ft | 492 kts | 349° |
| 2026-05-03 21:10 | 12.07996 | 143.58880 | 35918 ft | 489 kts | 349° |
| 2026-05-03 21:11 | 12.14691 | 143.57546 | 35906 ft | 490 kts | 349° |
| 2026-05-03 21:11 | 12.21309 | 143.56227 | 35916 ft | 485 kts | 349° |
| 2026-05-03 21:12 | 12.27908 | 143.54911 | 35917 ft | 483 kts | 349° |
| 2026-05-03 21:12 | 12.34525 | 143.53590 | 35918 ft | 485 kts | 349° |
| 2026-05-03 21:13 | 12.41150 | 143.52267 | 35921 ft | 484 kts | 349° |
| 2026-05-03 21:13 | 12.47719 | 143.50955 | 35914 ft | 484 kts | 349° |
| 2026-05-03 21:14 | 12.54336 | 143.49633 | 35915 ft | 485 kts | 349° |
| 2026-05-03 21:14 | 12.60968 | 143.48306 | 35924 ft | 485 kts | 349° |
| 2026-05-03 21:15 | 12.67584 | 143.46982 | 35925 ft | 485 kts | 348° |
| 2026-05-03 21:15 | 12.74221 | 143.45654 | 35927 ft | 487 kts | 348° |
| 2026-05-03 21:16 | 12.80814 | 143.44333 | 35919 ft | 486 kts | 348° |
| 2026-05-03 21:16 | 12.87447 | 143.43004 | 35929 ft | 485 kts | 348° |
| 2026-05-03 21:17 | 12.94095 | 143.41671 | 35928 ft | 487 kts | 348° |
| 2026-05-03 21:17 | 13.00743 | 143.40337 | 35927 ft | 486 kts | 348° |
| 2026-05-03 21:18 | 13.07348 | 143.39011 | 35930 ft | 487 kts | 348° |
| 2026-05-03 21:18 | 13.14014 | 143.37672 | 35930 ft | 489 kts | 348° |
| 2026-05-03 21:19 | 13.20690 | 143.36330 | 35919 ft | 488 kts | 348° |
| 2026-05-03 21:19 | 13.27337 | 143.34995 | 35933 ft | 487 kts | 347° |
| 2026-05-03 21:20 | 13.33954 | 143.33663 | 35935 ft | 489 kts | 348° |
| 2026-05-03 21:20 | 13.40621 | 143.32321 | 35937 ft | 488 kts | 348° |
| 2026-05-03 21:21 | 13.47271 | 143.30982 | 35937 ft | 487 kts | 347° |
| 2026-05-03 21:21 | 13.53936 | 143.29639 | 35937 ft | 489 kts | 347° |
| 2026-05-03 21:22 | 13.60589 | 143.28298 | 35942 ft | 485 kts | 347° |
| 2026-05-03 21:22 | 13.67144 | 143.26976 | 35942 ft | 483 kts | 347° |
| 2026-05-03 21:23 | 13.73739 | 143.25645 | 35943 ft | 484 kts | 347° |
| 2026-05-03 21:23 | 13.80345 | 143.24310 | 35946 ft | 483 kts | 347° |
| 2026-05-03 21:24 | 13.86907 | 143.22985 | 35931 ft | 476 kts | 347° |
| 2026-05-03 21:24 | 13.93380 | 143.21677 | 35939 ft | 473 kts | 346° |
| 2026-05-03 21:25 | 13.99794 | 143.20378 | 35946 ft | 473 kts | 347° |
| 2026-05-03 21:25 | 14.06253 | 143.19070 | 35949 ft | 473 kts | 347° |
| 2026-05-03 21:26 | 14.12716 | 143.17761 | 35945 ft | 472 kts | 347° |
| 2026-05-03 21:26 | 14.19146 | 143.16458 | 35944 ft | 470 kts | 346° |
| 2026-05-03 21:27 | 14.25520 | 143.15166 | 35950 ft | 470 kts | 347° |
| 2026-05-03 21:27 | 14.31939 | 143.13863 | 35947 ft | 470 kts | 346° |
| 2026-05-03 21:28 | 14.38361 | 143.12559 | 35954 ft | 470 kts | 346° |
| 2026-05-03 21:28 | 14.44773 | 143.11257 | 35949 ft | 469 kts | 346° |
| 2026-05-03 21:29 | 14.51134 | 143.09964 | 35952 ft | 469 kts | 346° |
| 2026-05-03 21:29 | 14.57542 | 143.08660 | 35950 ft | 469 kts | 346° |
| 2026-05-03 21:30 | 14.63948 | 143.07357 | 35966 ft | 469 kts | 346° |
| 2026-05-03 21:30 | 14.70341 | 143.06055 | 35957 ft | 468 kts | 346° |
| 2026-05-03 21:31 | 14.76678 | 143.04764 | 35954 ft | 467 kts | 346° |
| 2026-05-03 21:31 | 14.83064 | 143.03462 | 35956 ft | 467 kts | 346° |
| 2026-05-03 21:32 | 14.89441 | 143.02161 | 35955 ft | 467 kts | 346° |
| 2026-05-03 21:32 | 14.95823 | 143.00859 | 35955 ft | 467 kts | 346° |
| 2026-05-03 21:33 | 15.02153 | 142.99578 | 35964 ft | 467 kts | 346° |
| 2026-05-03 21:33 | 15.08541 | 142.98329 | 35957 ft | 467 kts | 346° |
| 2026-05-03 21:34 | 15.14933 | 142.97090 | 35967 ft | 467 kts | 347° |
| 2026-05-03 21:34 | 15.21325 | 142.95848 | 35966 ft | 467 kts | 346° |
| 2026-05-03 21:35 | 15.27673 | 142.94610 | 35965 ft | 467 kts | 346° |
| 2026-05-03 21:35 | 15.34062 | 142.93362 | 35970 ft | 467 kts | 346° |
| 2026-05-03 21:36 | 15.40451 | 142.92113 | 35970 ft | 467 kts | 346° |
| 2026-05-03 21:36 | 15.46834 | 142.90865 | 35972 ft | 467 kts | 346° |
| 2026-05-03 21:37 | 15.53221 | 142.89615 | 35972 ft | 466 kts | 346° |
| 2026-05-03 21:37 | 15.59554 | 142.88375 | 35974 ft | 466 kts | 346° |
| 2026-05-03 21:38 | 15.65926 | 142.87127 | 35977 ft | 466 kts | 346° |
| 2026-05-03 21:38 | 15.72301 | 142.85877 | 35978 ft | 466 kts | 346° |
| 2026-05-03 21:39 | 15.78678 | 142.84626 | 35979 ft | 466 kts | 346° |
| 2026-05-03 21:39 | 15.85001 | 142.83385 | 35977 ft | 466 kts | 346° |
| 2026-05-03 21:40 | 15.91368 | 142.82134 | 35980 ft | 466 kts | 346° |
| 2026-05-03 21:40 | 15.97734 | 142.80883 | 35983 ft | 466 kts | 346° |
| 2026-05-03 21:41 | 16.04100 | 142.79631 | 35983 ft | 465 kts | 346° |
| 2026-05-03 21:41 | 16.10459 | 142.78380 | 35982 ft | 465 kts | 346° |
| 2026-05-03 21:42 | 16.16766 | 142.77138 | 35988 ft | 465 kts | 346° |
| 2026-05-03 21:42 | 16.23121 | 142.75886 | 35988 ft | 465 kts | 346° |
| 2026-05-03 21:43 | 16.29481 | 142.74631 | 35994 ft | 465 kts | 346° |
| 2026-05-03 21:43 | 16.35837 | 142.73377 | 35990 ft | 465 kts | 346° |
| 2026-05-03 21:44 | 16.42146 | 142.72132 | 35991 ft | 465 kts | 346° |
| 2026-05-03 21:44 | 16.48495 | 142.70877 | 35994 ft | 465 kts | 346° |
| 2026-05-03 21:45 | 16.54849 | 142.69621 | 35998 ft | 465 kts | 345° |
| 2026-05-03 21:45 | 16.61201 | 142.68365 | 35993 ft | 464 kts | 345° |
| 2026-05-03 21:46 | 16.67500 | 142.67118 | 35997 ft | 464 kts | 345° |
| 2026-05-03 21:46 | 16.73837 | 142.65862 | 35996 ft | 464 kts | 345° |
| 2026-05-03 21:47 | 16.80178 | 142.64605 | 35998 ft | 464 kts | 345° |
| 2026-05-03 21:47 | 16.86514 | 142.63348 | 36001 ft | 463 kts | 345° |
| 2026-05-03 21:48 | 16.92842 | 142.62092 | 36001 ft | 463 kts | 345° |
| 2026-05-03 21:48 | 16.99130 | 142.60843 | 36004 ft | 463 kts | 345° |
| 2026-05-03 21:49 | 17.05458 | 142.59585 | 36004 ft | 463 kts | 345° |
| 2026-05-03 21:49 | 17.11793 | 142.58325 | 36004 ft | 463 kts | 345° |
| 2026-05-03 21:50 | 17.18118 | 142.57066 | 36004 ft | 463 kts | 345° |
| 2026-05-03 21:50 | 17.24397 | 142.55815 | 36005 ft | 463 kts | 345° |
| 2026-05-03 21:51 | 17.30726 | 142.54554 | 36010 ft | 463 kts | 345° |
| 2026-05-03 21:51 | 17.37051 | 142.53292 | 36010 ft | 463 kts | 345° |
| 2026-05-03 21:52 | 17.43377 | 142.52029 | 36011 ft | 463 kts | 344° |
| 2026-05-03 21:52 | 17.49661 | 142.50774 | 36013 ft | 463 kts | 344° |
| 2026-05-03 21:53 | 17.55996 | 142.49507 | 36015 ft | 463 kts | 345° |
| 2026-05-03 21:53 | 17.62330 | 142.48241 | 36019 ft | 463 kts | 344° |
| 2026-05-03 21:54 | 17.68662 | 142.46973 | 36018 ft | 463 kts | 344° |
| 2026-05-03 21:54 | 17.74990 | 142.45706 | 36018 ft | 463 kts | 344° |
| 2026-05-03 21:55 | 17.81273 | 142.44446 | 36018 ft | 463 kts | 344° |
| 2026-05-03 21:55 | 17.87602 | 142.43176 | 36018 ft | 463 kts | 344° |
| 2026-05-03 21:56 | 17.93929 | 142.41906 | 36018 ft | 463 kts | 344° |
| 2026-05-03 21:56 | 18.00250 | 142.40636 | 36018 ft | 463 kts | 344° |
| 2026-05-03 21:57 | 18.06533 | 142.39373 | 36018 ft | 463 kts | 344° |
| 2026-05-03 21:57 | 18.12861 | 142.38100 | 36029 ft | 463 kts | 344° |
| 2026-05-03 21:58 | 18.19188 | 142.36826 | 36023 ft | 463 kts | 344° |
| 2026-05-03 21:58 | 18.25510 | 142.35552 | 36026 ft | 463 kts | 344° |
| 2026-05-03 21:59 | 18.31791 | 142.34286 | 36026 ft | 463 kts | 344° |
| 2026-05-03 21:59 | 18.38108 | 142.33011 | 36026 ft | 463 kts | 344° |
| 2026-05-03 22:00 | 18.44429 | 142.31735 | 36034 ft | 462 kts | 344° |
| 2026-05-03 22:00 | 18.50740 | 142.30459 | 36034 ft | 462 kts | 344° |
| 2026-05-03 22:01 | 18.57007 | 142.29192 | 36034 ft | 462 kts | 344° |
| 2026-05-03 22:01 | 18.63323 | 142.27913 | 36031 ft | 462 kts | 344° |
| 2026-05-03 22:02 | 18.69639 | 142.26634 | 36034 ft | 462 kts | 344° |
| 2026-05-03 22:02 | 18.75950 | 142.25355 | 36034 ft | 462 kts | 344° |
| 2026-05-03 22:03 | 18.82258 | 142.24075 | 36034 ft | 462 kts | 344° |
| 2026-05-03 22:03 | 18.88527 | 142.22802 | 36040 ft | 462 kts | 344° |
| 2026-05-03 22:04 | 18.94838 | 142.21520 | 36040 ft | 461 kts | 344° |
| 2026-05-03 22:04 | 19.01138 | 142.20240 | 36037 ft | 461 kts | 344° |
| 2026-05-03 22:05 | 19.07428 | 142.18960 | 36045 ft | 461 kts | 344° |
| 2026-05-03 22:05 | 19.13683 | 142.17686 | 36043 ft | 461 kts | 344° |
| 2026-05-03 22:06 | 19.19975 | 142.16403 | 36045 ft | 461 kts | 344° |
| 2026-05-03 22:06 | 19.26269 | 142.15119 | 36046 ft | 460 kts | 344° |
| 2026-05-03 22:07 | 19.32561 | 142.13835 | 36046 ft | 461 kts | 344° |
| 2026-05-03 22:07 | 19.38810 | 142.12558 | 36047 ft | 461 kts | 344° |
| 2026-05-03 22:08 | 19.45102 | 142.11272 | 36049 ft | 461 kts | 345° |
| 2026-05-03 22:08 | 19.51407 | 142.09982 | 36050 ft | 461 kts | 345° |
| 2026-05-03 22:09 | 19.57708 | 142.08692 | 36051 ft | 461 kts | 345° |
| 2026-05-03 22:10 | 19.67120 | 142.06763 | 36051 ft | 461 kts | 345° |
| 2026-05-03 22:10 | 19.73431 | 142.05468 | 36053 ft | 462 kts | 345° |
| 2026-05-03 22:11 | 19.79752 | 142.04170 | 36051 ft | 463 kts | 346° |
| 2026-05-03 22:11 | 19.86078 | 142.02870 | 36053 ft | 463 kts | 346° |
| 2026-05-03 22:12 | 19.92401 | 142.01570 | 36059 ft | 463 kts | 346° |
| 2026-05-03 22:12 | 19.98680 | 142.00278 | 36059 ft | 463 kts | 346° |
| 2026-05-03 22:13 | 20.05016 | 141.99018 | 36056 ft | 463 kts | 347° |
| 2026-05-03 22:13 | 20.11357 | 141.97800 | 36058 ft | 463 kts | 347° |
| 2026-05-03 22:14 | 20.17699 | 141.96582 | 36061 ft | 463 kts | 347° |
| 2026-05-03 22:14 | 20.24004 | 141.95365 | 36063 ft | 463 kts | 347° |
| 2026-05-03 22:15 | 20.30349 | 141.94136 | 36065 ft | 464 kts | 347° |
| 2026-05-03 22:15 | 20.36696 | 141.92906 | 36063 ft | 464 kts | 347° |
| 2026-05-03 22:16 | 20.43047 | 141.91673 | 36064 ft | 464 kts | 347° |
| 2026-05-03 22:16 | 20.49352 | 141.90449 | 36067 ft | 464 kts | 347° |
| 2026-05-03 22:17 | 20.55696 | 141.89216 | 36063 ft | 464 kts | 347° |
| 2026-05-03 22:17 | 20.62052 | 141.87979 | 36064 ft | 464 kts | 347° |
| 2026-05-03 22:18 | 20.68398 | 141.86744 | 36066 ft | 464 kts | 347° |
| 2026-05-03 22:18 | 20.74705 | 141.85515 | 36071 ft | 464 kts | 348° |
| 2026-05-03 22:19 | 20.81065 | 141.84274 | 36067 ft | 464 kts | 347° |
| 2026-05-03 22:19 | 20.87413 | 141.83036 | 36067 ft | 464 kts | 347° |
| 2026-05-03 22:20 | 20.93763 | 141.81795 | 36079 ft | 464 kts | 347° |
| 2026-05-03 22:20 | 21.00063 | 141.80564 | 36072 ft | 463 kts | 348° |
| 2026-05-03 22:21 | 21.06405 | 141.79323 | 36071 ft | 464 kts | 348° |
| 2026-05-03 22:21 | 21.12760 | 141.78077 | 36080 ft | 465 kts | 348° |
| 2026-05-03 22:22 | 21.19124 | 141.76830 | 36077 ft | 465 kts | 348° |
| 2026-05-03 22:22 | 21.25494 | 141.75580 | 36077 ft | 466 kts | 348° |
| 2026-05-03 22:23 | 21.31830 | 141.74336 | 36078 ft | 466 kts | 348° |
| 2026-05-03 22:23 | 21.38211 | 141.73082 | 36079 ft | 466 kts | 348° |
| 2026-05-03 22:24 | 21.44581 | 141.71828 | 36082 ft | 466 kts | 348° |
| 2026-05-03 22:24 | 21.50961 | 141.70573 | 36082 ft | 466 kts | 348° |
| 2026-05-03 22:25 | 21.57345 | 141.69315 | 36080 ft | 466 kts | 348° |
| 2026-05-03 22:25 | 21.63664 | 141.68068 | 36081 ft | 465 kts | 348° |
| 2026-05-03 22:26 | 21.70053 | 141.66806 | 36086 ft | 468 kts | 348° |
| 2026-05-03 22:26 | 21.76459 | 141.65540 | 36088 ft | 468 kts | 348° |
| 2026-05-03 22:27 | 21.82867 | 141.64272 | 36084 ft | 469 kts | 348° |
| 2026-05-03 22:27 | 21.89256 | 141.63007 | 36088 ft | 470 kts | 348° |
| 2026-05-03 22:28 | 21.95695 | 141.61733 | 36085 ft | 470 kts | 348° |
| 2026-05-03 22:28 | 22.02124 | 141.60458 | 36089 ft | 470 kts | 348° |
| 2026-05-03 22:29 | 22.08563 | 141.59179 | 36085 ft | 471 kts | 348° |
| 2026-05-03 22:29 | 22.15007 | 141.57900 | 36081 ft | 470 kts | 348° |
| 2026-05-03 22:30 | 22.21392 | 141.56629 | 36088 ft | 470 kts | 348° |
| 2026-05-03 22:30 | 22.27822 | 141.55349 | 36095 ft | 470 kts | 348° |
| 2026-05-03 22:31 | 22.34257 | 141.54066 | 36095 ft | 470 kts | 348° |
| 2026-05-03 22:31 | 22.40658 | 141.52790 | 36089 ft | 471 kts | 348° |
| 2026-05-03 22:32 | 22.47097 | 141.51505 | 36093 ft | 471 kts | 348° |
| 2026-05-03 22:32 | 22.53552 | 141.50215 | 36094 ft | 472 kts | 348° |
| 2026-05-03 22:33 | 22.60003 | 141.48924 | 36091 ft | 472 kts | 348° |
| 2026-05-03 22:33 | 22.66466 | 141.47631 | 36092 ft | 472 kts | 348° |
| 2026-05-03 22:34 | 22.72885 | 141.46346 | 36090 ft | 472 kts | 348° |
| 2026-05-03 22:34 | 22.79346 | 141.45050 | 36095 ft | 472 kts | 348° |
| 2026-05-03 22:35 | 22.85810 | 141.43751 | 36099 ft | 472 kts | 348° |
| 2026-05-03 22:35 | 22.92275 | 141.42452 | 36096 ft | 472 kts | 348° |
| 2026-05-03 22:36 | 22.98731 | 141.41154 | 36095 ft | 472 kts | 348° |
| 2026-05-03 22:36 | 23.05145 | 141.39863 | 36101 ft | 472 kts | 348° |
| 2026-05-03 22:37 | 23.11600 | 141.38561 | 36102 ft | 472 kts | 348° |
| 2026-05-03 22:37 | 23.18060 | 141.37257 | 36098 ft | 472 kts | 348° |
| 2026-05-03 22:38 | 23.24524 | 141.35952 | 36096 ft | 472 kts | 348° |
| 2026-05-03 22:38 | 23.30940 | 141.34655 | 36103 ft | 472 kts | 348° |
| 2026-05-03 22:39 | 23.37396 | 141.33349 | 36104 ft | 472 kts | 348° |
| 2026-05-03 22:39 | 23.43851 | 141.32042 | 36105 ft | 472 kts | 348° |
| 2026-05-03 22:40 | 23.50305 | 141.30733 | 36103 ft | 472 kts | 348° |
| 2026-05-03 22:40 | 23.56719 | 141.29431 | 36106 ft | 472 kts | 348° |
| 2026-05-03 22:41 | 23.63172 | 141.28121 | 36109 ft | 472 kts | 348° |
| 2026-05-03 22:41 | 23.69633 | 141.26807 | 36110 ft | 473 kts | 348° |
| 2026-05-03 22:42 | 23.76101 | 141.25490 | 36102 ft | 473 kts | 347° |
| 2026-05-03 22:42 | 23.82568 | 141.24172 | 36103 ft | 473 kts | 347° |
| 2026-05-03 22:43 | 23.89035 | 141.22853 | 36108 ft | 473 kts | 347° |
| 2026-05-03 22:43 | 23.95463 | 141.21540 | 36106 ft | 473 kts | 347° |
| 2026-05-03 22:44 | 24.01938 | 141.20217 | 36110 ft | 473 kts | 347° |
| 2026-05-03 22:44 | 24.08416 | 141.18892 | 36114 ft | 473 kts | 347° |
| 2026-05-03 22:45 | 24.14851 | 141.17574 | 36108 ft | 474 kts | 347° |
| 2026-05-03 22:45 | 24.21333 | 141.16245 | 36115 ft | 474 kts | 347° |
| 2026-05-03 22:46 | 24.27823 | 141.14913 | 36113 ft | 474 kts | 347° |
| 2026-05-03 22:46 | 24.34307 | 141.13581 | 36115 ft | 474 kts | 347° |
| 2026-05-03 22:47 | 24.40791 | 141.12248 | 36118 ft | 474 kts | 347° |
| 2026-05-03 22:47 | 24.47234 | 141.10921 | 36119 ft | 474 kts | 347° |
| 2026-05-03 22:48 | 24.53723 | 141.09584 | 36114 ft | 474 kts | 347° |
| 2026-05-03 22:48 | 24.60209 | 141.08246 | 36113 ft | 475 kts | 347° |
| 2026-05-03 22:49 | 24.66706 | 141.06904 | 36119 ft | 475 kts | 347° |
| 2026-05-03 22:49 | 24.73153 | 141.05572 | 36123 ft | 475 kts | 347° |
| 2026-05-03 22:50 | 24.79642 | 141.04228 | 36117 ft | 475 kts | 347° |
| 2026-05-03 22:50 | 24.86140 | 141.02882 | 36119 ft | 475 kts | 347° |
| 2026-05-03 22:51 | 24.92633 | 141.01536 | 36123 ft | 475 kts | 347° |
| 2026-05-03 22:51 | 24.99086 | 141.00198 | 36122 ft | 475 kts | 348° |
| 2026-05-03 22:52 | 25.05638 | 140.99168 | 36118 ft | 476 kts | 352° |
| 2026-05-03 22:52 | 25.12222 | 140.98396 | 36118 ft | 476 kts | 352° |
| 2026-05-03 22:53 | 25.18814 | 140.97630 | 36124 ft | 476 kts | 352° |
| 2026-05-03 22:53 | 25.25355 | 140.96831 | 36119 ft | 476 kts | 352° |
| 2026-05-03 22:54 | 25.31938 | 140.96005 | 36124 ft | 476 kts | 352° |
| 2026-05-03 22:54 | 25.38522 | 140.95174 | 36125 ft | 476 kts | 352° |
| 2026-05-03 22:55 | 25.45104 | 140.94344 | 36122 ft | 476 kts | 352° |
| 2026-05-03 22:55 | 25.51642 | 140.93519 | 36121 ft | 476 kts | 352° |
| 2026-05-03 22:56 | 25.58230 | 140.92687 | 36124 ft | 477 kts | 352° |
| 2026-05-03 22:56 | 25.64821 | 140.91855 | 36124 ft | 477 kts | 352° |
| 2026-05-03 22:57 | 25.71408 | 140.91022 | 36125 ft | 476 kts | 352° |
| 2026-05-03 22:57 | 25.77956 | 140.90194 | 36123 ft | 477 kts | 352° |
| 2026-05-03 22:58 | 25.84542 | 140.89359 | 36124 ft | 477 kts | 352° |
| 2026-05-03 22:58 | 25.91137 | 140.88521 | 36123 ft | 476 kts | 352° |
| 2026-05-03 22:59 | 25.97719 | 140.87684 | 36127 ft | 476 kts | 352° |
| 2026-05-03 22:59 | 26.04264 | 140.86854 | 36122 ft | 477 kts | 352° |
| 2026-05-03 23:00 | 26.10862 | 140.86013 | 36121 ft | 477 kts | 352° |
| 2026-05-03 23:00 | 26.17458 | 140.85173 | 36127 ft | 477 kts | 352° |
| 2026-05-03 23:01 | 26.24062 | 140.84328 | 36122 ft | 478 kts | 352° |
| 2026-05-03 23:01 | 26.30623 | 140.83488 | 36122 ft | 477 kts | 352° |
| 2026-05-03 23:02 | 26.37217 | 140.82647 | 36121 ft | 477 kts | 352° |
| 2026-05-03 23:02 | 26.43818 | 140.81802 | 36125 ft | 477 kts | 352° |
| 2026-05-03 23:03 | 26.50428 | 140.80956 | 36119 ft | 478 kts | 352° |
| 2026-05-03 23:03 | 26.56989 | 140.80112 | 36119 ft | 478 kts | 352° |
| 2026-05-03 23:04 | 26.63600 | 140.79264 | 36120 ft | 478 kts | 352° |
| 2026-05-03 23:04 | 26.70212 | 140.78413 | 36115 ft | 478 kts | 352° |
| 2026-05-03 23:05 | 26.76826 | 140.77558 | 36115 ft | 478 kts | 352° |
| 2026-05-03 23:05 | 26.83433 | 140.76706 | 36115 ft | 478 kts | 352° |
| 2026-05-03 23:06 | 26.89992 | 140.75862 | 36117 ft | 478 kts | 352° |
| 2026-05-03 23:06 | 26.96609 | 140.75009 | 36111 ft | 479 kts | 351° |
| 2026-05-03 23:07 | 27.03220 | 140.74150 | 36113 ft | 478 kts | 352° |
| 2026-05-03 23:07 | 27.09836 | 140.73294 | 36115 ft | 478 kts | 351° |
| 2026-05-03 23:08 | 27.16412 | 140.72443 | 36111 ft | 479 kts | 351° |
| 2026-05-03 23:08 | 27.23034 | 140.71582 | 36106 ft | 479 kts | 351° |
| 2026-05-03 23:09 | 27.29653 | 140.70720 | 36112 ft | 479 kts | 351° |
| 2026-05-03 23:09 | 27.36280 | 140.69855 | 36097 ft | 479 kts | 351° |
| 2026-05-03 23:10 | 27.42857 | 140.68996 | 36098 ft | 479 kts | 351° |
| 2026-05-03 23:10 | 27.49488 | 140.68130 | 36099 ft | 479 kts | 351° |
| 2026-05-03 23:11 | 27.56114 | 140.67265 | 36102 ft | 479 kts | 351° |
| 2026-05-03 23:11 | 27.62739 | 140.66400 | 36096 ft | 479 kts | 351° |
| 2026-05-03 23:12 | 27.69327 | 140.65539 | 36092 ft | 479 kts | 351° |
| 2026-05-03 23:12 | 27.75954 | 140.64671 | 36100 ft | 479 kts | 351° |
| 2026-05-03 23:13 | 27.82580 | 140.63801 | 36088 ft | 480 kts | 351° |
| 2026-05-03 23:13 | 27.89210 | 140.62929 | 36087 ft | 480 kts | 351° |
| 2026-05-03 23:14 | 27.95843 | 140.62056 | 36099 ft | 480 kts | 351° |
| 2026-05-03 23:14 | 28.02436 | 140.61187 | 36082 ft | 480 kts | 351° |
| 2026-05-03 23:15 | 28.09064 | 140.60313 | 36084 ft | 480 kts | 351° |
| 2026-05-03 23:15 | 28.15700 | 140.59436 | 36085 ft | 480 kts | 351° |
| 2026-05-03 23:16 | 28.22337 | 140.58558 | 36080 ft | 480 kts | 350° |
| 2026-05-03 23:16 | 28.28975 | 140.57679 | 36081 ft | 480 kts | 350° |
| 2026-05-03 23:17 | 28.35569 | 140.56805 | 36078 ft | 480 kts | 350° |
| 2026-05-03 23:17 | 28.42206 | 140.55924 | 36079 ft | 480 kts | 350° |
| 2026-05-03 23:18 | 28.48854 | 140.55040 | 36077 ft | 481 kts | 350° |
| 2026-05-03 23:18 | 28.55447 | 140.54162 | 36071 ft | 481 kts | 350° |
| 2026-05-03 23:19 | 28.62091 | 140.53276 | 36083 ft | 481 kts | 350° |
| 2026-05-03 23:19 | 28.68740 | 140.52389 | 36069 ft | 481 kts | 350° |
| 2026-05-03 23:20 | 28.75391 | 140.51501 | 36067 ft | 481 kts | 350° |
| 2026-05-03 23:20 | 28.82042 | 140.50611 | 36064 ft | 481 kts | 350° |
| 2026-05-03 23:21 | 28.88652 | 140.49726 | 36059 ft | 481 kts | 349° |
| 2026-05-03 23:21 | 28.95301 | 140.48834 | 36059 ft | 481 kts | 349° |
| 2026-05-03 23:22 | 29.05285 | 140.47493 | 36071 ft | 481 kts | 349° |
| 2026-05-03 23:22 | 29.11937 | 140.46598 | 36056 ft | 481 kts | 349° |
| 2026-05-03 23:23 | 29.18532 | 140.45710 | 36053 ft | 481 kts | 349° |
| 2026-05-03 23:23 | 29.25179 | 140.44813 | 36051 ft | 481 kts | 349° |
| 2026-05-03 23:24 | 29.31811 | 140.43917 | 36048 ft | 480 kts | 349° |
| 2026-05-03 23:24 | 29.38459 | 140.43017 | 36048 ft | 480 kts | 349° |
| 2026-05-03 23:25 | 29.45052 | 140.42124 | 36043 ft | 480 kts | 349° |
| 2026-05-03 23:25 | 29.51692 | 140.41224 | 36041 ft | 481 kts | 348° |
| 2026-05-03 23:26 | 29.58331 | 140.40322 | 36040 ft | 481 kts | 348° |
| 2026-05-03 23:26 | 29.64972 | 140.39419 | 36035 ft | 481 kts | 348° |
| 2026-05-03 23:27 | 29.71614 | 140.38515 | 36033 ft | 481 kts | 348° |
| 2026-05-03 23:27 | 29.78212 | 140.37615 | 36034 ft | 481 kts | 348° |
| 2026-05-03 23:28 | 29.84851 | 140.36709 | 36029 ft | 481 kts | 348° |
| 2026-05-03 23:28 | 29.91494 | 140.35801 | 36032 ft | 481 kts | 348° |
| 2026-05-03 23:29 | 29.98135 | 140.34877 | 36025 ft | 479 kts | 346° |
| 2026-05-03 23:29 | 30.04508 | 140.33055 | 36021 ft | 474 kts | 339° |
| 2026-05-03 23:30 | 30.10816 | 140.30862 | 36029 ft | 473 kts | 338° |
| 2026-05-03 23:30 | 30.17106 | 140.28592 | 36015 ft | 473 kts | 338° |
| 2026-05-03 23:31 | 30.23395 | 140.26326 | 36009 ft | 473 kts | 338° |
| 2026-05-03 23:31 | 30.29685 | 140.24070 | 36017 ft | 473 kts | 338° |
| 2026-05-03 23:32 | 30.35929 | 140.21835 | 36004 ft | 473 kts | 338° |
| 2026-05-03 23:32 | 30.42228 | 140.19579 | 35998 ft | 474 kts | 338° |
| 2026-05-03 23:33 | 30.48528 | 140.17318 | 35993 ft | 474 kts | 338° |
| 2026-05-03 23:33 | 30.54822 | 140.15056 | 35986 ft | 474 kts | 337° |
| 2026-05-03 23:34 | 30.61076 | 140.12806 | 35980 ft | 474 kts | 337° |
| 2026-05-03 23:34 | 30.67374 | 140.10536 | 35981 ft | 474 kts | 337° |
| 2026-05-03 23:35 | 30.73666 | 140.08265 | 35979 ft | 474 kts | 337° |
| 2026-05-03 23:35 | 30.79962 | 140.05990 | 35973 ft | 474 kts | 337° |
| 2026-05-03 23:36 | 30.86205 | 140.03731 | 35968 ft | 474 kts | 337° |
| 2026-05-03 23:36 | 30.92502 | 140.01449 | 35964 ft | 474 kts | 337° |
| 2026-05-03 23:37 | 30.98849 | 139.99319 | 35961 ft | 479 kts | 343° |
| 2026-05-03 23:37 | 31.05552 | 139.98704 | 35960 ft | 487 kts | 353° |
| 2026-05-03 23:38 | 31.12294 | 139.98660 | 35955 ft | 488 kts | 355° |
| 2026-05-03 23:38 | 31.19084 | 139.98727 | 35948 ft | 488 kts | 355° |
| 2026-05-03 23:39 | 31.25882 | 139.98781 | 35948 ft | 488 kts | 355° |
| 2026-05-03 23:39 | 31.32670 | 139.98809 | 35938 ft | 488 kts | 354° |
| 2026-05-03 23:40 | 31.39412 | 139.98826 | 35939 ft | 488 kts | 354° |
| 2026-05-03 23:40 | 31.46201 | 139.98843 | 35932 ft | 488 kts | 354° |
| 2026-05-03 23:41 | 31.52998 | 139.98860 | 35924 ft | 488 kts | 354° |
| 2026-05-03 23:41 | 31.59792 | 139.98878 | 35925 ft | 489 kts | 354° |
| 2026-05-03 23:42 | 31.66600 | 139.98897 | 35925 ft | 489 kts | 354° |
| 2026-05-03 23:42 | 31.73353 | 139.98915 | 35922 ft | 489 kts | 354° |
| 2026-05-03 23:43 | 31.80159 | 139.98934 | 35914 ft | 489 kts | 354° |
| 2026-05-03 23:43 | 31.86966 | 139.98953 | 35912 ft | 489 kts | 354° |
| 2026-05-03 23:44 | 31.92623 | 139.98968 | 35921 ft | 489 kts | 354° |
| 2026-05-03 23:44 | 31.99435 | 139.98986 | 35902 ft | 490 kts | 354° |
| 2026-05-03 23:45 | 32.07371 | 139.99008 | 35897 ft | 491 kts | 354° |
| 2026-05-03 23:45 | 32.13051 | 139.99023 | 35891 ft | 491 kts | 354° |
| 2026-05-03 23:46 | 32.19892 | 139.99042 | 35892 ft | 492 kts | 353° |
| 2026-05-03 23:46 | 32.26735 | 139.99061 | 35881 ft | 492 kts | 353° |
| 2026-05-03 23:47 | 32.33579 | 139.99080 | 35877 ft | 492 kts | 353° |
| 2026-05-03 23:47 | 32.40427 | 139.99099 | 35877 ft | 493 kts | 353° |
| 2026-05-03 23:48 | 32.47247 | 139.99117 | 35870 ft | 493 kts | 353° |
| 2026-05-03 23:48 | 32.54111 | 139.99135 | 35867 ft | 493 kts | 353° |
| 2026-05-03 23:49 | 32.60981 | 139.99151 | 35860 ft | 494 kts | 353° |
| 2026-05-03 23:49 | 32.67850 | 139.99168 | 35857 ft | 494 kts | 353° |
| 2026-05-03 23:50 | 32.74682 | 139.99185 | 35856 ft | 494 kts | 353° |
| 2026-05-03 23:50 | 32.81560 | 139.99203 | 35852 ft | 495 kts | 353° |
| 2026-05-03 23:51 | 32.88463 | 139.99218 | 35841 ft | 496 kts | 353° |
| 2026-05-03 23:51 | 32.95372 | 139.99233 | 35839 ft | 496 kts | 353° |
| 2026-05-03 23:52 | 33.02235 | 139.99249 | 35829 ft | 497 kts | 353° |
| 2026-05-03 23:52 | 33.09164 | 139.99264 | 35820 ft | 498 kts | 353° |
| 2026-05-03 23:53 | 33.16107 | 139.99280 | 35820 ft | 499 kts | 353° |
| 2026-05-03 23:53 | 33.23052 | 139.99296 | 35813 ft | 501 kts | 353° |
| 2026-05-03 23:54 | 33.30043 | 139.99311 | 35804 ft | 503 kts | 353° |
| 2026-05-03 23:54 | 33.36995 | 139.99328 | 35797 ft | 503 kts | 353° |
| 2026-05-03 23:55 | 33.43989 | 139.99344 | 35789 ft | 503 kts | 353° |
| 2026-05-03 23:55 | 33.51003 | 139.99359 | 35786 ft | 505 kts | 353° |
| 2026-05-03 23:56 | 33.58030 | 139.99376 | 35784 ft | 505 kts | 353° |
| 2026-05-03 23:56 | 33.65009 | 139.99393 | 35774 ft | 505 kts | 352° |
| 2026-05-03 23:57 | 33.72036 | 139.99409 | 35774 ft | 506 kts | 352° |
| 2026-05-03 23:57 | 33.79073 | 139.99425 | 35769 ft | 506 kts | 352° |
| 2026-05-03 23:58 | 33.86110 | 139.99442 | 35760 ft | 506 kts | 352° |
| 2026-05-03 23:58 | 33.93153 | 139.99458 | 35755 ft | 506 kts | 352° |
| 2026-05-03 23:59 | 34.00139 | 139.99474 | 35757 ft | 506 kts | 352° |
| 2026-05-03 23:59 | 34.07186 | 139.99490 | 35738 ft | 507 kts | 352° |
| 2026-05-04 00:00 | 34.14273 | 140.00105 | 35741 ft | 521 kts | 6° |
| 2026-05-04 00:00 | 34.17760 | 140.01437 | 35730 ft | 531 kts | 18° |
| 2026-05-04 00:00 | 34.20976 | 140.03579 | 35739 ft | 540 kts | 31° |
| 2026-05-04 00:01 | 34.23827 | 140.06570 | 35734 ft | 547 kts | 46° |
| 2026-05-04 00:01 | 34.26310 | 140.10078 | 35734 ft | 550 kts | 50° |
| 2026-05-04 00:01 | 34.30510 | 140.17797 | 35724 ft | 552 kts | 66° |
| 2026-05-04 00:02 | 34.33646 | 140.26277 | 35720 ft | 552 kts | 68° |
| 2026-05-04 00:02 | 34.36628 | 140.34838 | 35735 ft | 552 kts | 69° |
| 2026-05-04 00:03 | 34.39603 | 140.43355 | 35727 ft | 552 kts | 68° |
| 2026-05-04 00:03 | 34.42615 | 140.51892 | 35731 ft | 550 kts | 68° |
| 2026-05-04 00:04 | 34.46012 | 140.60179 | 35724 ft | 550 kts | 54° |
| 2026-05-04 00:04 | 34.48432 | 140.63713 | 35671 ft | 541 kts | 42° |
| 2026-05-04 00:04 | 34.51307 | 140.66600 | 34998 ft | 535 kts | 28° |
| 2026-05-04 00:05 | 34.54600 | 140.68643 | 34188 ft | 530 kts | 14° |
| 2026-05-04 00:05 | 34.58133 | 140.69775 | 33256 ft | 523 kts | 1° |
| 2026-05-04 00:05 | 34.61693 | 140.70078 | 32130 ft | 521 kts | 353° |
| 2026-05-04 00:05 | 34.65289 | 140.69773 | 31045 ft | 514 kts | 341° |
| 2026-05-04 00:06 | 34.68648 | 140.68494 | 30153 ft | 497 kts | 326° |
| 2026-05-04 00:06 | 34.71520 | 140.66358 | 29529 ft | 474 kts | 312° |
| 2026-05-04 00:06 | 34.73789 | 140.63593 | 28878 ft | 451 kts | 299° |
| 2026-05-04 00:06 | 34.75393 | 140.60438 | 28308 ft | 430 kts | 287° |
| 2026-05-04 00:07 | 34.76350 | 140.57081 | 27747 ft | 412 kts | 276° |
| 2026-05-04 00:07 | 34.76694 | 140.53696 | 27199 ft | 397 kts | 266° |
| 2026-05-04 00:07 | 34.76484 | 140.50451 | 26670 ft | 385 kts | 256° |
| 2026-05-04 00:07 | 34.75769 | 140.47357 | 26158 ft | 376 kts | 247° |
| 2026-05-04 00:08 | 34.74610 | 140.44548 | 25638 ft | 369 kts | 238° |
| 2026-05-04 00:08 | 34.73305 | 140.41882 | 25104 ft | 365 kts | 242° |
| 2026-05-04 00:08 | 34.72384 | 140.39032 | 24632 ft | 362 kts | 252° |
| 2026-05-04 00:08 | 34.72064 | 140.35985 | 24114 ft | 365 kts | 265° |
| 2026-05-04 00:09 | 34.72400 | 140.32907 | 23610 ft | 373 kts | 277° |
| 2026-05-04 00:09 | 34.73407 | 140.29944 | 23032 ft | 385 kts | 290° |
| 2026-05-04 00:09 | 34.74785 | 140.27198 | 22415 ft | 386 kts | 293° |
| 2026-05-04 00:09 | 34.76247 | 140.24479 | 21878 ft | 381 kts | 293° |
| 2026-05-04 00:10 | 34.77692 | 140.21798 | 21345 ft | 377 kts | 293° |
| 2026-05-04 00:10 | 34.79111 | 140.19142 | 20787 ft | 373 kts | 293° |
| 2026-05-04 00:10 | 34.80509 | 140.16509 | 20273 ft | 368 kts | 292° |
| 2026-05-04 00:10 | 34.81885 | 140.13905 | 19755 ft | 365 kts | 292° |
| 2026-05-04 00:11 | 34.83249 | 140.11319 | 19258 ft | 361 kts | 292° |
| 2026-05-04 00:11 | 34.84598 | 140.08753 | 18719 ft | 358 kts | 292° |
| 2026-05-04 00:11 | 34.85935 | 140.06209 | 18203 ft | 355 kts | 292° |
| 2026-05-04 00:11 | 34.87242 | 140.03719 | 17660 ft | 352 kts | 292° |
| 2026-05-04 00:12 | 34.88551 | 140.01226 | 17103 ft | 347 kts | 292° |
| 2026-05-04 00:12 | 34.89841 | 139.98766 | 16622 ft | 342 kts | 292° |
| 2026-05-04 00:12 | 34.91112 | 139.96341 | 16117 ft | 338 kts | 291° |
| 2026-05-04 00:12 | 34.92371 | 139.93936 | 15610 ft | 334 kts | 291° |
| 2026-05-04 00:13 | 34.93721 | 139.91620 | 15122 ft | 340 kts | 299° |
| 2026-05-04 00:13 | 34.95548 | 139.89686 | 14621 ft | 360 kts | 316° |
| 2026-05-04 00:13 | 34.97912 | 139.88447 | 14042 ft | 379 kts | 331° |
| 2026-05-04 00:13 | 35.00472 | 139.87599 | 13459 ft | 383 kts | 334° |
| 2026-05-04 00:14 | 35.03016 | 139.86835 | 12913 ft | 379 kts | 334° |
| 2026-05-04 00:14 | 35.05569 | 139.86066 | 12619 ft | 376 kts | 334° |
| 2026-05-04 00:14 | 35.08085 | 139.85297 | 12174 ft | 370 kts | 334° |
| 2026-05-04 00:14 | 35.10572 | 139.84523 | 11607 ft | 368 kts | 334° |
| 2026-05-04 00:15 | 35.13041 | 139.83746 | 11050 ft | 366 kts | 334° |
| 2026-05-04 00:15 | 35.15479 | 139.82981 | 10805 ft | 354 kts | 334° |
| 2026-05-04 00:15 | 35.17804 | 139.82260 | 10732 ft | 337 kts | 333° |
| 2026-05-04 00:15 | 35.20025 | 139.81566 | 10585 ft | 323 kts | 333° |
| 2026-05-04 00:16 | 35.22158 | 139.80893 | 10438 ft | 311 kts | 332° |
| 2026-05-04 00:16 | 35.24222 | 139.80236 | 10175 ft | 305 kts | 332° |
| 2026-05-04 00:16 | 35.26252 | 139.79578 | 9718 ft | 307 kts | 332° |
| 2026-05-04 00:16 | 35.28317 | 139.78912 | 9297 ft | 307 kts | 332° |
| 2026-05-04 00:17 | 35.30439 | 139.78424 | 8888 ft | 319 kts | 347° |
| 2026-05-04 00:17 | 35.32687 | 139.78965 | 8434 ft | 344 kts | 18° |
| 2026-05-04 00:17 | 35.34697 | 139.80602 | 8065 ft | 349 kts | 34° |
| 2026-05-04 00:17 | 35.36561 | 139.82505 | 7630 ft | 348 kts | 36° |
| 2026-05-04 00:18 | 35.38400 | 139.84410 | 7292 ft | 344 kts | 36° |
| 2026-05-04 00:18 | 35.40219 | 139.86271 | 7073 ft | 337 kts | 35° |
| 2026-05-04 00:18 | 35.42009 | 139.88078 | 6875 ft | 330 kts | 34° |
| 2026-05-04 00:18 | 35.43716 | 139.89840 | 6761 ft | 321 kts | 38° |
| 2026-05-04 00:19 | 35.45299 | 139.91706 | 6662 ft | 311 kts | 41° |
| 2026-05-04 00:19 | 35.46816 | 139.93562 | 6434 ft | 307 kts | 41° |
| 2026-05-04 00:19 | 35.48320 | 139.95408 | 6149 ft | 305 kts | 41° |
| 2026-05-04 00:19 | 35.49812 | 139.97239 | 5884 ft | 302 kts | 41° |
| 2026-05-04 00:20 | 35.51306 | 139.99067 | 5521 ft | 304 kts | 40° |
| 2026-05-04 00:20 | 35.52799 | 140.00895 | 5235 ft | 302 kts | 41° |
| 2026-05-04 00:20 | 35.54342 | 140.02618 | 4919 ft | 296 kts | 26° |
| 2026-05-04 00:20 | 35.56164 | 140.03398 | 4619 ft | 273 kts | 354° |
| 2026-05-04 00:21 | 35.57933 | 140.03118 | 4323 ft | 243 kts | 323° |
| 2026-05-04 00:21 | 35.59174 | 140.01940 | 4079 ft | 213 kts | 297° |
| 2026-05-04 00:21 | 35.59887 | 140.00463 | 3892 ft | 192 kts | 284° |
| 2026-05-04 00:21 | 35.60297 | 139.98983 | 3849 ft | 173 kts | 275° |
| 2026-05-04 00:22 | 35.60430 | 139.97609 | 3760 ft | 153 kts | 263° |
| 2026-05-04 00:22 | 35.60432 | 139.96365 | 3627 ft | 138 kts | 263° |
| 2026-05-04 00:22 | 35.60428 | 139.95260 | 3473 ft | 122 kts | 262° |
| 2026-05-04 00:22 | 35.60427 | 139.94265 | 3289 ft | 113 kts | 261° |
| 2026-05-04 00:23 | 35.60428 | 139.93311 | 3183 ft | 117 kts | 261° |
| 2026-05-04 00:23 | 35.60423 | 139.92268 | 3003 ft | 125 kts | 261° |
| 2026-05-04 00:23 | 35.60418 | 139.91197 | 2778 ft | 125 kts | 261° |
| 2026-05-04 00:23 | 35.60416 | 139.90131 | 2534 ft | 124 kts | 261° |
| 2026-05-04 00:24 | 35.60413 | 139.89073 | 2296 ft | 123 kts | 261° |
| 2026-05-04 00:24 | 35.60409 | 139.88025 | 2100 ft | 122 kts | 261° |
| 2026-05-04 00:24 | 35.60405 | 139.86981 | 1923 ft | 122 kts | 260° |
| 2026-05-04 00:24 | 35.60400 | 139.85941 | 1726 ft | 121 kts | 260° |
| 2026-05-04 00:25 | 35.60396 | 139.84921 | 1545 ft | 121 kts | 260° |
| 2026-05-04 00:25 | 35.60368 | 139.83879 | 1408 ft | 123 kts | 257° |
| 2026-05-04 00:25 | 35.60250 | 139.82855 | 1332 ft | 119 kts | 251° |
| 2026-05-04 00:25 | 35.60050 | 139.81868 | 1119 ft | 119 kts | 248° |
| 2026-05-04 00:26 | 35.59720 | 139.80943 | 905 ft | 117 kts | 238° |
| 2026-05-04 00:26 | 35.59280 | 139.80104 | 680 ft | 116 kts | 229° |
| 2026-05-04 00:26 | 35.58722 | 139.79381 | 513 ft | 117 kts | 217° |
| 2026-05-04 00:26 | 35.58057 | 139.78800 | 364 ft | 119 kts | 212° |
| 2026-05-04 00:27 | 35.57372 | 139.78231 | 211 ft | 117 kts | 212° |
| 2026-05-04 00:27 | 35.56728 | 139.77684 | 64 ft | 111 kts | 212° |
| 2026-05-04 00:27 | 35.56144 | 139.77191 | 29 ft | 81 kts | 213° |
| 2026-05-04 00:27 | 35.55848 | 139.76937 | 29 ft | 39 kts | 214° |
| 2026-05-04 00:28 | 35.55649 | 139.76768 | 29 ft | 31 kts | 214° |
| 2026-05-04 00:28 | 35.55480 | 139.76656 | 29 ft | 25 kts | 199° |
| 2026-05-04 00:28 | 35.55333 | 139.76618 | 27 ft | 17 kts | 189° |
| 2026-05-04 00:28 | 35.55226 | 139.76598 | 27 ft | 14 kts | 189° |
| 2026-05-04 00:29 | 35.55145 | 139.76595 | 27 ft | 10 kts | 178° |
| 2026-05-04 00:29 | 35.55073 | 139.76596 | 27 ft | 11 kts | 180° |
| 2026-05-04 00:29 | 35.55007 | 139.76612 | 27 ft | 9 kts | 155° |
| 2026-05-04 00:29 | 35.54946 | 139.76627 | 27 ft | 9 kts | 190° |
| 2026-05-04 00:30 | 35.54916 | 139.76603 | 27 ft | 0 kts | 220° |
| 2026-05-04 00:30 | 35.54914 | 139.76601 | 27 ft | 1 kts | 218° |
| 2026-05-04 00:30 | 35.54913 | 139.76600 | 27 ft | 0 kts | 221° |
| 2026-05-04 00:30 | 35.54913 | 139.76598 | 27 ft | 0 kts | 229° |
| 2026-05-04 00:31 | 35.54910 | 139.76592 | 27 ft | 2 kts | 234° |
| 2026-05-04 00:31 | 35.54894 | 139.76567 | 27 ft | 5 kts | 229° |
| 2026-05-04 00:31 | 35.54870 | 139.76556 | 27 ft | 1 kts | 176° |
| 2026-05-04 00:31 | 35.54858 | 139.76562 | 27 ft | 4 kts | 160° |
| 2026-05-04 00:32 | 35.54834 | 139.76577 | 27 ft | 4 kts | 150° |
| 2026-05-04 00:32 | 35.54823 | 139.76585 | 27 ft | 1 kts | 151° |
| 2026-05-04 00:32 | 35.54822 | 139.76585 | 27 ft | 0 kts | 151° |